Etusivu
METAR-TAF:

METAR-TAF

Lentoasemat :

Millington, Tennessee, Yhdysvallat

Leveyspiiri: 35-21-24N, Pituuspiiri: 089-52-13W, korkeus merenpinnasta: 98 m

Tämänhetkinen sää

Tämä raportti tehtiin 14 minuuttia sitten, kello 04.50 UTC
Tuuli 6 kn pohjoisen/luoteesta
Lämpötila 12°C
Kosteus 88%
Ilmanpaine 1017 hPa
Näkyvyys: 16.1 km
Muutamia pilviä 8000 ft:n korkeudessa
Hajanaisia pilviä 10000 ft:n korkeudessa

METAR: KNQA 050450Z AUTO 33006KT 10SM FEW080 SCT100 12/10 A3004 RMK A01

Aika: 00:04 (05:04 UTC)


TAF: puuttuu

Säähavainnot ja -ennusteet yli 4000 lentoasemalta (METAR- ja TAF-raportit).

Käytössä olevat sääasemat on merkitty karttaan keltaisilla ja punaisilla pisteillä.

Aseta hiiri pisteen päälle nähdäksesi sääaseman nimen.

Klikkaa sitten nähdäksesi säähavainnot ja -ennusteet.

Kartan vaihtaminen: klikkaa mustalla rastilla varustettuja vihreitä pisteitä, niin voit zoomata sisään; viivalla varustettua vihreää pistettä, niin voit zoomata ulos tai vihreitä nuolia, niin pääset viereisille kartoille.


METAR-TAF: